createdAt,value
2017-11-23T00:01:30.044Z,6.78
2017-11-23T00:03:57.641Z,7.45
2017-11-23T00:06:26.000Z,7.72
2017-11-23T00:08:53.827Z,9.48
2017-11-23T00:11:21.370Z,7.95
2017-11-23T00:13:48.923Z,7.65
2017-11-23T00:16:16.659Z,7.78
2017-11-23T00:18:44.201Z,9.02
2017-11-23T00:21:11.859Z,10.25
2017-11-23T00:23:39.412Z,6.35
2017-11-23T00:26:07.064Z,7.40
2017-11-23T00:28:35.382Z,6.95
2017-11-23T00:31:03.001Z,7.10
2017-11-23T00:33:31.304Z,8.63
2017-11-23T00:35:58.898Z,9.55
2017-11-23T00:38:27.289Z,6.93
2017-11-23T00:40:54.852Z,8.60
2017-11-23T00:43:23.342Z,8.07
2017-11-23T00:45:50.931Z,7.78
2017-11-23T00:48:18.490Z,7.75
2017-11-23T00:50:46.067Z,7.68
2017-11-23T00:53:13.600Z,6.62
2017-11-23T00:55:41.219Z,8.73
2017-11-23T00:58:09.530Z,8.82
2017-11-23T01:00:37.075Z,6.87
2017-11-23T01:03:04.850Z,9.48
2017-11-23T01:05:32.430Z,8.15
2017-11-23T01:07:59.983Z,8.23
2017-11-23T01:10:27.570Z,8.70
2017-11-23T01:12:55.125Z,6.70
2017-11-23T01:15:22.706Z,9.38
2017-11-23T01:17:50.243Z,7.32
2017-11-23T01:20:17.995Z,7.55
2017-11-23T01:22:45.696Z,7.97
2017-11-23T01:25:13.286Z,7.07
2017-11-23T01:27:40.837Z,12.88
2017-11-23T01:30:09.251Z,13.57
2017-11-23T01:32:36.799Z,8.48
2017-11-23T01:35:04.707Z,8.75
2017-11-23T01:37:32.258Z,8.55
2017-11-23T01:39:59.810Z,8.35
2017-11-23T01:42:27.425Z,8.20
2017-11-23T01:44:55.739Z,8.82
2017-11-23T01:47:23.278Z,8.73
2017-11-23T01:49:50.914Z,9.65
2017-11-23T01:52:19.226Z,8.40
2017-11-23T01:54:46.805Z,13.32
2017-11-23T01:57:14.362Z,7.70
2017-11-23T01:59:42.006Z,9.43
2017-11-23T02:02:10.314Z,7.60
2017-11-23T02:04:37.871Z,9.95
2017-11-23T02:07:05.762Z,9.10
2017-11-23T02:09:33.359Z,8.00
2017-11-23T02:12:00.914Z,8.98
2017-11-23T02:14:28.530Z,8.93
2017-11-23T02:16:56.066Z,9.50
2017-11-23T02:19:23.604Z,8.95
2017-11-23T02:21:51.406Z,8.15
2017-11-23T02:24:18.948Z,9.55
2017-11-23T02:26:47.438Z,12.50
2017-11-23T02:29:14.987Z,8.27
2017-11-23T02:31:42.532Z,9.65
2017-11-23T02:34:10.124Z,9.02
2017-11-23T02:36:42.907Z,10.18
2017-11-23T02:39:10.479Z,10.02
2017-11-23T02:41:38.188Z,9.82
2017-11-23T02:44:05.731Z,10.02
2017-11-23T02:46:34.042Z,7.72
2017-11-23T02:49:01.622Z,9.45
2017-11-23T02:51:29.204Z,8.77
2017-11-23T02:53:56.766Z,9.10
2017-11-23T02:56:24.384Z,8.63
2017-11-23T02:58:51.939Z,10.60
2017-11-23T03:01:19.486Z,7.95
2017-11-23T03:03:47.514Z,11.30
2017-11-23T03:06:15.073Z,10.23
2017-11-23T03:08:42.600Z,9.55
2017-11-23T03:11:10.175Z,10.45
2017-11-23T03:13:37.769Z,8.35
2017-11-23T03:16:05.314Z,11.10
2017-11-23T03:18:34.519Z,9.80
2017-11-23T03:21:02.078Z,8.48
2017-11-23T03:23:29.657Z,9.45
2017-11-23T03:25:57.962Z,10.40
2017-11-23T03:28:25.502Z,9.20
2017-11-23T03:30:53.959Z,10.57
2017-11-23T03:33:21.492Z,11.30
2017-11-23T03:35:49.310Z,9.27
2017-11-23T03:38:17.713Z,9.13
2017-11-23T03:40:45.342Z,9.05
2017-11-23T03:43:13.655Z,8.40
2017-11-23T03:45:41.985Z,8.20
2017-11-23T03:48:09.558Z,9.38
2017-11-23T03:50:37.926Z,7.60
2017-11-23T03:53:05.462Z,8.55
2017-11-23T03:55:33.002Z,8.18
2017-11-23T03:58:01.303Z,9.82
2017-11-23T04:00:28.867Z,9.20
2017-11-23T04:02:56.406Z,10.00
2017-11-23T04:05:23.981Z,9.10
2017-11-23T04:07:51.687Z,7.50
2017-11-23T04:10:19.986Z,10.05
2017-11-23T04:12:47.541Z,12.00
2017-11-23T04:15:15.277Z,9.38
2017-11-23T04:17:43.581Z,11.80
2017-11-23T04:20:11.150Z,8.38
2017-11-23T04:22:38.799Z,9.25
2017-11-23T04:25:06.339Z,9.63
2017-11-23T04:27:34.686Z,9.00
2017-11-23T04:30:02.223Z,11.90
2017-11-23T04:32:30.109Z,10.63
2017-11-23T04:34:57.918Z,10.50
2017-11-23T04:37:26.217Z,10.98
2017-11-23T04:39:53.806Z,9.15
2017-11-23T04:42:21.734Z,9.77
2017-11-23T04:44:49.274Z,10.30
2017-11-23T04:47:17.587Z,11.05
2017-11-23T04:49:45.313Z,8.73
2017-11-23T04:52:13.621Z,9.00
2017-11-23T04:54:41.214Z,9.40
2017-11-23T04:57:08.836Z,12.57
2017-11-23T04:59:36.384Z,8.95
2017-11-23T05:02:04.742Z,8.85
2017-11-23T05:04:32.299Z,8.32
2017-11-23T05:07:00.255Z,9.70
2017-11-23T05:09:27.811Z,9.52
2017-11-23T05:11:55.357Z,9.00
2017-11-23T05:14:22.973Z,8.68
2017-11-23T05:16:51.274Z,10.10
2017-11-23T05:19:18.826Z,9.70
2017-11-23T05:21:46.694Z,9.63
2017-11-23T05:24:14.239Z,10.32
2017-11-23T05:26:42.595Z,9.57
2017-11-23T05:29:10.130Z,12.35
2017-11-23T05:31:37.747Z,9.30
2017-11-23T05:34:05.707Z,9.48
2017-11-23T05:36:34.012Z,9.20
2017-11-23T05:39:01.647Z,8.43
2017-11-23T05:41:30.208Z,8.13
2017-11-23T05:43:57.746Z,12.27
2017-11-23T05:46:25.287Z,9.20
2017-11-23T05:48:52.899Z,8.88
2017-11-23T05:51:21.208Z,10.75
2017-11-23T05:53:48.770Z,8.23
2017-11-23T05:56:16.510Z,9.15
2017-11-23T05:58:44.820Z,10.98
2017-11-23T06:01:12.359Z,10.30
2017-11-23T06:03:39.955Z,10.27
2017-11-23T06:06:07.494Z,10.95
2017-11-23T06:08:35.105Z,9.02
2017-11-23T06:11:02.650Z,8.75
2017-11-23T06:13:30.207Z,9.85
2017-11-23T06:15:58.206Z,8.55
2017-11-23T06:18:26.506Z,9.55
2017-11-23T06:20:54.050Z,8.77
2017-11-23T06:23:22.462Z,9.13
2017-11-23T06:25:50.049Z,8.48
2017-11-23T06:28:17.602Z,8.73
2017-11-23T06:30:45.385Z,8.98
2017-11-23T06:33:12.934Z,9.50
2017-11-23T06:35:43.257Z,9.85
2017-11-23T06:38:10.799Z,10.23
2017-11-23T06:40:38.338Z,8.30
2017-11-23T06:43:05.939Z,9.52
2017-11-23T06:45:33.760Z,9.00
2017-11-23T06:48:01.306Z,8.30
2017-11-23T06:50:29.602Z,9.48
2017-11-23T06:52:57.231Z,11.55
2017-11-23T06:55:26.812Z,9.07
2017-11-23T06:57:54.400Z,8.02
2017-11-23T07:00:22.848Z,8.75
2017-11-23T07:02:50.428Z,8.10
2017-11-23T07:05:18.360Z,8.85
2017-11-23T07:07:46.082Z,8.57
2017-11-23T07:16:27.733Z,8.15
2017-11-23T07:18:55.704Z,10.20
2017-11-23T07:21:30.391Z,8.20
2017-11-23T07:41:28.416Z,8.60
2017-11-23T08:08:10.629Z,8.93
2017-11-23T08:10:47.636Z,8.70
2017-11-23T08:22:00.106Z,11.25
2017-11-23T08:24:27.731Z,8.32
2017-11-23T08:26:56.894Z,8.10
2017-11-23T08:29:26.212Z,10.05
2017-11-23T08:31:54.697Z,7.97
2017-11-23T08:51:45.119Z,6.80
2017-11-23T08:54:15.553Z,6.72
2017-11-23T08:56:46.764Z,6.80
2017-11-23T08:59:14.347Z,7.05
2017-11-23T09:01:41.950Z,7.03
2017-11-23T09:04:09.571Z,7.20
2017-11-23T09:06:37.959Z,7.18
2017-11-23T09:09:06.298Z,7.15
2017-11-23T09:11:37.876Z,6.57
2017-11-23T09:14:08.989Z,6.87
2017-11-23T09:16:37.571Z,6.12
2017-11-23T09:19:05.172Z,7.35
2017-11-23T09:21:33.532Z,8.00
2017-11-23T09:24:04.859Z,6.57
2017-11-23T09:26:32.411Z,6.20
2017-11-23T09:29:00.124Z,7.65
2017-11-23T09:31:28.530Z,7.28
2017-11-23T09:33:56.133Z,7.72
2017-11-23T09:36:23.730Z,6.90
2017-11-23T09:38:52.066Z,6.47
2017-11-23T09:41:19.614Z,7.72
2017-11-23T09:43:47.495Z,7.15
2017-11-23T09:46:15.091Z,6.87
2017-11-23T09:48:42.630Z,6.70
2017-11-23T09:51:10.236Z,7.57
2017-11-23T09:53:37.804Z,9.45
2017-11-23T09:56:06.854Z,10.18
2017-11-23T09:58:36.150Z,12.98
2017-11-23T10:01:04.511Z,8.20
2017-11-23T10:03:32.058Z,8.25
2017-11-23T10:05:59.694Z,6.43
2017-11-23T10:08:27.259Z,8.32
2017-11-23T10:10:54.873Z,8.70
2017-11-23T10:13:22.500Z,6.62
2017-11-23T10:15:53.269Z,7.90
2017-11-23T10:18:20.859Z,6.97
2017-11-23T10:20:48.462Z,5.80
2017-11-23T10:23:16.599Z,6.18
2017-11-23T10:25:47.776Z,7.55
2017-11-23T10:28:15.371Z,8.20
2017-11-23T10:30:42.966Z,5.68
2017-11-23T10:33:10.714Z,6.15
2017-11-23T10:35:39.125Z,5.72
2017-11-23T10:38:08.169Z,6.65
2017-11-23T10:40:35.820Z,6.10
2017-11-23T10:43:03.434Z,6.25
2017-11-23T10:45:31.151Z,6.05
2017-11-23T10:47:58.751Z,6.55
2017-11-23T10:50:26.514Z,5.28
2017-11-23T10:52:54.854Z,6.07
2017-11-23T10:55:22.482Z,5.47
2017-11-23T10:57:50.090Z,7.80
2017-11-23T11:00:20.319Z,6.30
2017-11-23T11:02:48.683Z,6.18
2017-11-23T11:05:16.519Z,5.30
2017-11-23T11:07:44.107Z,5.97
2017-11-23T11:10:11.767Z,5.25
2017-11-23T11:12:39.363Z,5.90
2017-11-23T11:15:07.335Z,7.20
2017-11-23T11:17:34.901Z,8.65
2017-11-23T11:20:02.528Z,5.85
2017-11-23T11:22:31.567Z,6.82
2017-11-23T11:24:59.214Z,5.93
2017-11-23T11:27:27.462Z,6.40
2017-11-23T11:29:55.078Z,6.37
2017-11-23T11:32:22.643Z,7.55
2017-11-23T11:34:51.015Z,6.80
2017-11-23T11:37:18.584Z,6.25
2017-11-23T11:39:46.229Z,6.45
2017-11-23T11:42:13.792Z,7.20
2017-11-23T11:44:41.408Z,6.07
2017-11-23T11:47:08.976Z,6.20
2017-11-23T11:49:37.358Z,6.47
2017-11-23T11:52:05.687Z,7.47
2017-11-23T11:54:33.344Z,5.60
2017-11-23T11:57:00.915Z,9.05
2017-11-23T11:59:28.839Z,13.93
2017-11-23T12:01:56.442Z,5.35
2017-11-23T12:04:24.111Z,6.37
2017-11-23T12:06:51.694Z,10.75
2017-11-23T12:09:19.493Z,6.30
2017-11-23T12:11:47.251Z,8.43
2017-11-23T12:14:29.642Z,6.82
2017-11-23T12:17:10.607Z,7.35
2017-11-23T12:19:52.032Z,5.00
2017-11-23T12:22:31.412Z,6.12
2017-11-23T12:25:03.025Z,7.10
2017-11-23T12:27:42.506Z,6.07
2017-11-23T12:30:12.249Z,8.10
2017-11-23T12:32:40.594Z,5.15
2017-11-23T12:35:08.189Z,7.43
2017-11-23T12:37:35.756Z,6.18
2017-11-23T12:40:03.383Z,7.68
2017-11-23T12:42:30.929Z,5.72
2017-11-23T12:44:58.475Z,4.93
2017-11-23T12:47:26.370Z,7.50
2017-11-23T12:49:53.967Z,5.10
2017-11-23T12:52:22.293Z,5.47
2017-11-23T12:54:49.898Z,6.37
2017-11-23T12:57:18.235Z,6.60
2017-11-23T12:59:45.972Z,6.12
2017-11-23T13:02:13.515Z,5.30
2017-11-23T13:04:41.833Z,5.82
2017-11-23T13:07:10.023Z,6.03
2017-11-23T13:09:37.566Z,6.15
2017-11-23T13:12:05.155Z,7.35
2017-11-23T13:14:32.738Z,7.82
2017-11-23T13:17:01.056Z,9.95
2017-11-23T13:19:28.695Z,6.60
2017-11-23T13:21:56.264Z,8.15
2017-11-23T13:24:24.219Z,5.00
2017-11-23T13:26:51.994Z,6.37
2017-11-23T13:29:19.537Z,7.00
2017-11-23T13:31:47.270Z,4.85
2017-11-23T13:34:14.810Z,4.55
2017-11-23T13:36:43.046Z,5.72
2017-11-23T13:39:10.654Z,6.47
2017-11-23T13:41:38.193Z,5.07
2017-11-23T13:44:05.734Z,5.30
2017-11-23T13:46:33.649Z,6.70
2017-11-23T13:49:06.138Z,6.35
2017-11-23T13:51:33.698Z,6.30
2017-11-23T13:54:01.322Z,4.47
2017-11-23T13:56:28.876Z,7.07
2017-11-23T13:58:56.653Z,8.30
2017-11-23T14:01:24.542Z,6.68
2017-11-23T14:03:52.096Z,6.57
2017-11-23T14:06:19.647Z,7.95
2017-11-23T14:08:47.401Z,10.82
2017-11-23T14:11:15.738Z,5.50
2017-11-23T14:13:43.290Z,6.07
2017-11-23T14:16:11.166Z,4.78
2017-11-23T14:18:38.750Z,7.05
2017-11-23T14:21:07.178Z,6.18
2017-11-23T14:23:34.734Z,9.15
2017-11-23T14:26:02.438Z,21.85
2017-11-23T14:28:30.132Z,9.55
2017-11-23T14:30:58.454Z,7.35
2017-11-23T14:33:26.240Z,8.02
2017-11-23T14:35:53.799Z,9.52
2017-11-23T14:38:21.406Z,6.57
2017-11-23T14:40:48.956Z,5.80
2017-11-23T14:43:16.558Z,7.45
2017-11-23T14:45:44.119Z,4.40
2017-11-23T14:48:11.702Z,8.35
2017-11-23T14:50:39.254Z,5.10
2017-11-23T14:53:06.915Z,5.68
2017-11-23T14:55:34.465Z,5.95
2017-11-23T14:58:03.706Z,5.70
2017-11-23T15:00:31.261Z,4.55
2017-11-23T15:03:00.847Z,5.18
2017-11-23T15:05:28.404Z,4.25
2017-11-23T15:07:55.947Z,4.68
2017-11-23T15:10:23.831Z,9.30
2017-11-23T15:12:56.306Z,6.28
2017-11-23T15:15:23.848Z,7.03
2017-11-23T15:17:51.484Z,7.50
2017-11-23T15:20:19.031Z,5.68
2017-11-23T15:22:47.346Z,6.45
2017-11-23T15:25:15.447Z,4.85
2017-11-23T15:27:43.402Z,5.78
2017-11-23T15:30:10.944Z,4.60
2017-11-23T15:32:38.766Z,4.82
2017-11-23T15:35:07.088Z,7.55
2017-11-23T15:37:34.686Z,6.95
2017-11-23T15:40:02.298Z,6.37
2017-11-23T15:42:29.848Z,5.45
2017-11-23T15:44:57.409Z,6.18
2017-11-23T15:47:25.363Z,5.12
2017-11-23T15:49:52.927Z,7.22
2017-11-23T15:52:20.490Z,5.47
2017-11-23T15:54:48.083Z,8.98
2017-11-23T15:57:15.633Z,5.45
2017-11-23T15:59:43.347Z,6.00
2017-11-23T16:02:10.906Z,4.97
2017-11-23T16:04:38.455Z,6.85
2017-11-23T16:07:06.419Z,6.37
2017-11-23T16:09:33.989Z,6.72
2017-11-23T16:12:01.535Z,5.72
2017-11-23T16:14:29.123Z,6.30
2017-11-23T16:16:57.489Z,4.37
2017-11-23T16:19:25.035Z,6.32
2017-11-23T16:21:52.591Z,6.00
2017-11-23T16:24:20.663Z,9.90
2017-11-23T16:26:48.277Z,10.45
2017-11-23T16:29:16.142Z,8.05
2017-11-23T16:31:43.698Z,5.93
2017-11-23T16:34:12.092Z,7.85
2017-11-23T16:36:50.391Z,6.57
2017-11-23T16:39:18.730Z,6.75
2017-11-23T16:41:50.910Z,5.18
2017-11-23T16:44:24.926Z,5.15
2017-11-23T16:46:58.090Z,6.93
2017-11-23T16:49:31.299Z,7.35
2017-11-23T16:52:04.581Z,8.52
2017-11-23T16:54:37.734Z,7.60
2017-11-23T16:57:11.141Z,9.95
2017-11-23T16:59:40.150Z,9.40
2017-11-23T17:02:14.677Z,7.80
2017-11-23T17:04:47.897Z,9.27
2017-11-23T17:07:33.023Z,10.20
2017-11-23T17:10:06.497Z,8.45
2017-11-23T17:12:39.754Z,10.45
2017-11-23T17:15:13.750Z,9.20
2017-11-23T17:17:46.955Z,13.68
2017-11-23T17:20:14.601Z,8.73
2017-11-23T17:22:42.162Z,14.68
2017-11-23T17:25:09.819Z,12.98
2017-11-23T17:27:37.372Z,9.63
2017-11-23T17:30:04.931Z,10.48
2017-11-23T17:32:37.426Z,7.68
2017-11-23T17:35:05.024Z,12.57
2017-11-23T17:37:33.555Z,13.40
2017-11-23T17:40:01.151Z,7.80
2017-11-23T17:42:28.702Z,6.95
2017-11-23T17:45:01.474Z,10.13
2017-11-23T17:47:29.022Z,7.28
2017-11-23T17:49:56.570Z,11.50
2017-11-23T17:52:24.289Z,8.80
2017-11-23T17:54:52.600Z,8.45
2017-11-23T17:57:20.142Z,8.20
2017-11-23T17:59:47.739Z,8.10
2017-11-23T18:02:15.330Z,7.47
2017-11-23T18:04:42.878Z,6.62
2017-11-23T18:07:10.485Z,9.57
2017-11-23T18:09:38.035Z,6.55
2017-11-23T18:12:06.350Z,5.57
2017-11-23T18:14:34.026Z,8.55
2017-11-23T18:17:01.590Z,10.82
2017-11-23T18:19:30.786Z,13.85
2017-11-23T18:21:58.334Z,7.97
2017-11-23T18:24:25.880Z,7.55
2017-11-23T18:26:53.482Z,10.05
2017-11-23T18:29:21.262Z,7.40
2017-11-23T18:31:49.575Z,11.65
2017-11-23T18:34:17.166Z,8.48
2017-11-23T18:36:44.850Z,10.88
2017-11-23T18:39:16.081Z,11.15
2017-11-23T18:41:43.642Z,13.68
2017-11-23T18:44:11.722Z,10.80
2017-11-23T18:46:39.289Z,9.15
2017-11-23T18:49:06.838Z,12.88
2017-11-23T18:51:34.438Z,10.75
2017-11-23T18:54:02.750Z,9.13
2017-11-23T18:56:30.309Z,14.82
2017-11-23T18:58:58.023Z,12.43
2017-11-23T19:01:26.351Z,14.93
2017-11-23T19:03:53.922Z,12.77
2017-11-23T19:06:21.663Z,14.15
2017-11-23T19:08:49.268Z,11.43
2017-11-23T19:11:16.831Z,14.02
2017-11-23T19:13:44.433Z,10.45
2017-11-23T19:16:12.017Z,11.60
2017-11-23T19:18:39.574Z,11.93
2017-11-23T19:21:07.463Z,10.10
2017-11-23T19:23:35.052Z,12.02
2017-11-23T19:26:02.603Z,12.98
2017-11-23T19:28:30.246Z,15.07
2017-11-23T19:30:57.815Z,14.50
2017-11-23T19:33:25.410Z,10.07
2017-11-23T19:35:53.728Z,13.02
2017-11-23T19:38:26.434Z,14.75
2017-11-23T19:40:53.983Z,14.75
2017-11-23T19:43:21.598Z,12.85
2017-11-23T19:45:49.154Z,15.30
2017-11-23T19:48:17.471Z,11.85
2017-11-23T19:50:45.058Z,16.85
2017-11-23T19:53:12.838Z,13.30
2017-11-23T19:55:40.381Z,18.65
2017-11-23T19:58:07.979Z,10.85
2017-11-23T20:00:35.607Z,12.70
2017-11-23T20:03:03.159Z,10.60
2017-11-23T20:05:30.711Z,10.07
2017-11-23T20:07:58.322Z,11.45
2017-11-23T20:10:25.865Z,15.15
2017-11-23T20:12:54.185Z,11.93
2017-11-23T20:15:26.879Z,11.50
2017-11-23T20:17:54.430Z,14.57
2017-11-23T20:20:21.984Z,10.50
2017-11-23T20:22:50.061Z,11.88
2017-11-23T20:25:17.622Z,12.82
2017-11-23T20:27:45.166Z,9.35
2017-11-23T20:30:13.380Z,13.05
2017-11-23T20:32:40.923Z,12.13
2017-11-23T20:35:08.790Z,12.85
2017-11-23T20:37:36.342Z,10.05
2017-11-23T20:40:04.066Z,11.25
2017-11-23T20:42:32.386Z,15.32
2017-11-23T20:45:00.084Z,12.88
2017-11-23T20:47:27.625Z,9.98
2017-11-23T20:49:55.174Z,14.48
2017-11-23T20:52:22.917Z,15.48
2017-11-23T20:54:50.458Z,14.00
2017-11-23T20:57:18.767Z,13.62
2017-11-23T20:59:46.367Z,11.88
2017-11-23T21:02:13.963Z,12.60
2017-11-23T21:04:41.590Z,16.85
2017-11-23T21:07:09.152Z,21.55
2017-11-23T21:09:37.824Z,12.40
2017-11-23T21:12:05.414Z,11.55
2017-11-23T21:14:33.735Z,48.60
2017-11-23T21:17:01.338Z,20.45
2017-11-23T21:19:28.890Z,10.30
2017-11-23T21:21:56.438Z,29.25
2017-11-23T21:24:24.102Z,51.20
2017-11-23T21:26:51.655Z,27.08
2017-11-23T21:29:19.511Z,35.50
2017-11-23T21:31:47.074Z,26.65
2017-11-23T21:34:14.800Z,20.65
2017-11-23T21:36:42.355Z,21.20
2017-11-23T21:39:10.711Z,21.33
2017-11-23T21:41:38.262Z,28.17
2017-11-23T21:44:05.998Z,18.85
2017-11-23T21:46:33.597Z,29.87
2017-11-23T21:49:01.139Z,25.73
2017-11-23T21:51:28.768Z,23.08
2017-11-23T21:53:56.324Z,21.30
2017-11-23T21:56:23.874Z,24.02
2017-11-23T21:58:51.891Z,18.08
2017-11-23T22:01:19.438Z,15.52
2017-11-23T22:03:47.002Z,19.50
2017-11-23T22:06:14.643Z,20.05
2017-11-23T22:08:42.191Z,17.33
2017-11-23T22:11:09.739Z,15.45
2017-11-23T22:13:37.651Z,19.83
2017-11-23T22:16:05.192Z,16.42
2017-11-23T22:18:32.751Z,15.38
2017-11-23T22:21:00.505Z,14.30
2017-11-23T22:23:28.117Z,14.27
2017-11-23T22:25:56.454Z,12.23
2017-11-23T22:28:24.437Z,17.27
2017-11-23T22:30:52.199Z,14.90
2017-11-23T22:33:19.735Z,18.70
2017-11-23T22:35:47.470Z,21.65
2017-11-23T22:38:17.007Z,17.77
2017-11-23T22:40:44.569Z,17.27
2017-11-23T22:43:14.174Z,15.52
2017-11-23T22:45:41.737Z,12.00
2017-11-23T22:48:09.428Z,14.70
2017-11-23T22:50:36.975Z,15.77
2017-11-23T22:53:04.509Z,10.15
2017-11-23T22:55:32.095Z,12.55
2017-11-23T22:57:59.703Z,17.27
2017-11-23T23:00:28.023Z,9.13
2017-11-23T23:02:55.807Z,10.00
2017-11-23T23:05:23.350Z,10.70
2017-11-23T23:07:50.962Z,10.38
2017-11-23T23:10:19.286Z,10.95
2017-11-23T23:12:46.835Z,15.88
2017-11-23T23:15:14.415Z,9.40
2017-11-23T23:17:42.115Z,8.23
2017-11-23T23:20:09.753Z,9.32
2017-11-23T23:22:37.347Z,8.30
2017-11-23T23:25:05.657Z,12.95
2017-11-23T23:27:33.242Z,9.63
2017-11-23T23:30:00.788Z,14.87
2017-11-23T23:32:28.782Z,11.85
2017-11-23T23:34:56.325Z,10.10
2017-11-23T23:37:24.241Z,11.93
2017-11-23T23:39:52.557Z,18.87
2017-11-23T23:42:20.111Z,13.93
2017-11-23T23:44:47.695Z,14.77
2017-11-23T23:47:15.286Z,11.00
2017-11-23T23:49:42.829Z,11.65
2017-11-23T23:52:10.423Z,10.88
2017-11-23T23:54:38.734Z,15.70
2017-11-23T23:57:06.383Z,14.00
2017-11-23T23:59:33.934Z,12.35
